Mount Olive, West Virginia
Current Conditions -  °F | °C
As of 4:54 PM on Sunday 23 Nov 2014 (Local Time) from KCRW Reporting Station
Light Rain Light Rain  
Wind Chill: 57°   Ceiling: 11000
Heat Index: 57°   Visibility: 9mi
Dew Point: 46°   Wind: 12mph
Humidity: 67%   Direction: 140°SE
Pressure: 29.76"   Gusts: 17mph
Location:  38.23°N, 81.23°W
Report Text: KCRW 232154Z 14010G15KT 9SM -RA FEW050 OVC110 14/08 A2976 RMK AO2 SLP078 P0000 T01390078
Loading
Personal Weather Stations






























Interactive Weather Map New forecast layout! Learn more

10-Day Weather Forecast

Advertisements
Track Severe Weather on mobile